Time;durP1;ratioP1;P1;durP2;ratioP2;P2;SDS_P1;SDS_P2;PMS_P1;PMS_P2;Temp;Humidity;BMP_temperature;BMP_pressure;BME280_temperature;BME280_humidity;BME280_pressure;Samples;Min_cycle;Max_cycle;Signal;HPM_P1;HPM_P2
2023/07/05 00:00:10;;;;;;;6.32;2.83;;;;;;;16.33;79.68;100302.03;5053224;28;20485;-81
2023/07/05 00:02:37;;;;;;;10.85;3.88;;;;;;;16.32;80.02;100306.47;5055593;28;20044;-80
2023/07/05 00:05:03;;;;;;;7.20;3.72;;;;;;;16.32;79.99;100295.91;5039415;28;20041;-81
2023/07/05 00:07:30;;;;;;;6.00;3.47;;;;;;;16.30;80.55;100295.09;5030919;28;20040;-81
2023/07/05 00:09:56;;;;;;;8.75;3.53;;;;;;;16.28;80.71;100293.44;5067678;28;20042;-85
2023/07/05 00:12:23;;;;;;;6.47;2.90;;;;;;;16.29;81.27;100293.38;5063446;28;20037;-83
2023/07/05 00:14:49;;;;;;;7.00;3.65;;;;;;;16.29;80.99;100290.72;5047563;28;20122;-82
2023/07/05 00:17:16;;;;;;;10.40;2.90;;;;;;;16.29;81.18;100277.53;5051584;28;20066;-84
2023/07/05 00:19:42;;;;;;;6.80;3.80;;;;;;;16.29;81.09;100274.88;5052994;28;20048;-81
2023/07/05 00:22:09;;;;;;;7.35;3.72;;;;;;;16.29;81.07;100268.75;5050945;28;20048;-82
2023/07/05 00:24:36;;;;;;;7.57;3.50;;;;;;;16.28;81.20;100256.44;5048306;28;20040;-83
2023/07/05 00:27:02;;;;;;;7.03;3.17;;;;;;;16.28;80.93;100256.44;5048086;28;20036;-82
2023/07/05 00:29:29;;;;;;;7.68;2.83;;;;;;;16.25;81.12;100244.22;5056006;28;20098;-80
2023/07/05 00:31:55;;;;;;;6.63;3.53;;;;;;;16.25;81.35;100254.78;5071400;28;20486;-81
2023/07/05 00:34:22;;;;;;;5.22;3.70;;;;;;;16.27;80.79;100241.53;5049413;28;20745;-81
2023/07/05 00:36:48;;;;;;;8.55;3.53;;;;;;;16.29;80.83;100242.34;5051067;28;20443;-81
2023/07/05 00:39:14;;;;;;;4.43;3.05;;;;;;;16.29;80.74;100245.81;5058643;28;20041;-80
2023/07/05 00:41:41;;;;;;;9.98;4.30;;;;;;;16.28;80.47;100238.84;5054378;28;20032;-81
2023/07/05 00:44:08;;;;;;;4.97;2.92;;;;;;;16.27;80.38;100239.75;5056694;28;20037;-80
2023/07/05 00:46:35;;;;;;;3.45;2.90;;;;;;;16.25;80.49;100231.03;5046799;28;20052;-80
2023/07/05 00:49:13;;;;;;;6.18;3.42;;;;;;;16.25;80.66;100220.47;5052604;28;20040;-80
2023/07/05 00:51:57;;;;;;;7.43;3.35;;;;;;;16.27;80.86;100225.66;5063891;28;20040;-80
2023/07/05 00:54:36;;;;;;;9.10;3.30;;;;;;;16.15;82.64;100222.63;5065004;28;20045;-81
2023/07/05 00:57:20;;;;;;;7.05;3.03;;;;;;;15.98;83.94;100214.47;5035728;28;20048;-82
2023/07/05 00:59:58;;;;;;;6.45;4.10;;;;;;;15.83;85.62;100214.13;5051392;28;20066;-81
2023/07/05 01:02:25;;;;;;;4.38;3.67;;;;;;;15.75;86.54;100203.00;5050766;28;20036;-81
2023/07/05 01:04:51;;;;;;;6.60;3.65;;;;;;;15.71;88.05;100177.63;5032826;28;20059;-81
2023/07/05 01:07:18;;;;;;;7.85;3.67;;;;;;;15.72;87.98;100181.97;5051319;28;20041;-80
2023/07/05 01:09:47;;;;;;;6.43;3.75;;;;;;;15.73;87.51;100178.44;5054350;28;20040;-80
2023/07/05 01:12:28;;;;;;;9.27;4.13;;;;;;;15.76;87.58;100175.69;5055770;28;20037;-84
2023/07/05 01:15:05;;;;;;;5.53;3.42;;;;;;;15.78;87.05;100172.97;5054770;28;20395;-81
2023/07/05 01:17:49;;;;;;;8.50;4.22;;;;;;;15.78;86.60;100162.44;5044393;28;20446;-84
2023/07/05 01:20:27;;;;;;;;;;;;;;;15.78;86.87;100152.72;5042278;28;20142;-80
2023/07/05 01:23:36;;;;;;;7.18;3.70;;;;;;;15.80;86.82;100140.34;5067733;28;20046;-81
2023/07/05 01:26:25;;;;;;;9.07;4.75;;;;;;;15.80;86.81;100128.91;5054627;28;20044;-81
2023/07/05 01:29:36;;;;;;;8.27;3.65;;;;;;;15.79;86.27;100138.63;5038231;28;20052;-81
2023/07/05 01:32:21;;;;;;;5.75;3.20;;;;;;;15.80;86.42;100118.34;5059096;28;20051;-83
2023/07/05 01:35:00;;;;;;;5.68;3.80;;;;;;;15.80;86.54;100119.22;5042489;28;20054;-81
2023/07/05 01:37:34;;;;;;;7.20;4.45;;;;;;;15.79;86.39;100111.38;5053991;28;20048;-80
2023/07/05 01:40:01;;;;;;;9.95;4.78;;;;;;;15.77;86.66;100116.69;5052333;28;20881;-83
2023/07/05 01:42:33;;;;;;;7.78;3.85;;;;;;;15.76;86.56;100111.47;5055532;28;20062;-81
2023/07/05 01:45:01;;;;;;;5.50;3.95;;;;;;;15.74;86.78;100108.06;5056033;28;20041;-81
2023/07/05 01:48:04;;;;;;;8.25;3.35;;;;;;;15.72;86.21;100123.94;5051301;28;20052;-79
2023/07/05 01:50:38;;;;;;;6.25;3.63;;;;;;;15.71;86.37;100138.06;5039882;28;20067;-81
2023/07/05 01:53:19;;;;;;;5.03;4.10;;;;;;;15.72;87.09;100110.72;5043719;28;20048;-80
2023/07/05 01:56:05;;;;;;;10.60;4.38;;;;;;;15.67;88.40;100088.94;5037626;28;20040;-81
2023/07/05 01:58:40;;;;;;;4.82;3.78;;;;;;;15.62;88.95;100069.78;5053953;28;20044;-80
2023/07/05 02:01:08;;;;;;;7.18;4.40;;;;;;;15.54;90.41;100088.59;5062976;28;20036;-82
2023/07/05 02:03:37;;;;;;;8.30;3.40;;;;;;;15.48;90.45;100096.72;5067678;28;20114;-80
2023/07/05 02:06:04;;;;;;;12.15;4.25;;;;;;;15.45;91.63;100094.19;5054954;28;20038;-82
2023/07/05 02:08:36;;;;;;;10.43;3.75;;;;;;;15.36;92.57;100084.88;5050797;28;20498;-80
2023/07/05 02:11:03;;;;;;;6.00;3.70;;;;;;;15.22;94.43;100069.56;5057155;28;20048;-80
2023/07/05 02:13:30;;;;;;;10.43;5.13;;;;;;;15.02;97.04;100073.78;5066584;28;20048;-80
2023/07/05 02:15:56;;;;;;;6.28;4.47;;;;;;;14.84;98.33;100077.97;5046281;28;20032;-82
2023/07/05 02:18:23;;;;;;;9.82;5.40;;;;;;;14.72;100.00;100055.53;5054817;28;20086;-80
2023/07/05 02:20:49;;;;;;;9.40;5.18;;;;;;;14.53;100.00;100051.81;5053871;28;20051;-80
2023/07/05 02:23:16;;;;;;;11.05;5.40;;;;;;;14.35;100.00;100038.38;5046693;28;20041;-81
2023/07/05 02:25:42;;;;;;;9.90;5.45;;;;;;;14.27;100.00;100029.88;5055132;28;20052;-80
2023/07/05 02:28:10;;;;;;;9.02;5.30;;;;;;;14.25;100.00;100036.09;5055136;28;20036;-82
2023/07/05 02:30:38;;;;;;;7.03;5.55;;;;;;;14.23;100.00;100023.84;5053077;28;20041;-82
2023/07/05 02:33:04;;;;;;;9.07;6.00;;;;;;;14.24;100.00;100011.56;5044615;28;20083;-90
2023/07/05 02:35:36;;;;;;;7.53;5.03;;;;;;;14.23;100.00;100000.16;5049555;28;20037;-82
2023/07/05 02:38:03;;;;;;;9.95;6.03;;;;;;;14.26;100.00;100011.50;5050031;28;20033;-81
2023/07/05 02:40:29;;;;;;;7.95;5.18;;;;;;;14.31;100.00;100013.03;5064555;28;20572;-84
2023/07/05 02:42:57;;;;;;;10.50;6.15;;;;;;;14.31;100.00;99999.88;5036576;28;20045;-79
2023/07/05 02:45:24;;;;;;;8.20;4.57;;;;;;;14.29;100.00;99995.59;5048943;28;20142;-80
2023/07/05 02:47:50;;;;;;;11.52;5.25;;;;;;;14.27;100.00;99994.78;5054598;28;20041;-79
2023/07/05 02:50:17;;;;;;;8.00;5.90;;;;;;;14.28;100.00;99981.56;5048989;28;20051;-80
2023/07/05 02:52:44;;;;;;;10.85;5.10;;;;;;;14.28;100.00;99971.03;5074148;28;20479;-79
2023/07/05 02:55:11;;;;;;;9.82;5.90;;;;;;;14.28;100.00;99957.88;5044465;28;20472;-80
2023/07/05 02:57:37;;;;;;;11.10;5.43;;;;;;;14.31;100.00;99954.28;5047364;28;20044;-80
2023/07/05 03:00:06;;;;;;;11.05;5.50;;;;;;;14.36;100.00;99949.72;5050257;28;20098;-82
2023/07/05 03:02:34;;;;;;;10.48;5.95;;;;;;;14.36;100.00;99950.56;5056531;28;20767;-80
2023/07/05 03:05:09;;;;;;;10.45;5.55;;;;;;;14.36;100.00;99945.28;5055207;28;20047;-83
2023/07/05 03:07:36;;;;;;;6.88;5.13;;;;;;;14.37;100.00;99928.59;5055740;28;20033;-80
2023/07/05 03:10:03;;;;;;;6.57;5.25;;;;;;;14.44;100.00;99936.28;5066189;28;20037;-80
2023/07/05 03:12:30;;;;;;;10.05;5.65;;;;;;;14.47;100.00;99937.03;5052388;28;20056;-82
2023/07/05 03:14:56;;;;;;;7.93;5.28;;;;;;;14.54;100.00;99940.28;5059126;28;20459;-80
2023/07/05 03:17:23;;;;;;;13.90;5.07;;;;;;;14.60;100.00;99926.91;5037250;28;20040;-82
2023/07/05 03:19:52;;;;;;;8.90;5.57;;;;;;;14.68;100.00;99927.50;5050401;28;20032;-80
2023/07/05 03:22:18;;;;;;;8.95;5.43;;;;;;;14.78;100.00;99927.97;5068581;28;20040;-81
2023/07/05 03:24:45;;;;;;;8.85;5.50;;;;;;;14.85;100.00;99920.72;5052474;28;20052;-80
2023/07/05 03:27:11;;;;;;;9.30;5.57;;;;;;;14.94;98.88;99925.66;5068026;28;20068;-80
2023/07/05 03:29:38;;;;;;;8.45;5.28;;;;;;;15.01;98.70;99923.63;5039478;28;20041;-80
2023/07/05 03:32:07;;;;;;;11.10;5.85;;;;;;;14.92;99.42;99924.84;5073531;28;20036;-79
2023/07/05 03:34:33;;;;;;;5.90;5.30;;;;;;;14.83;99.97;99926.03;5041350;28;20044;-82
2023/07/05 03:37:00;;;;;;;8.68;5.55;;;;;;;14.80;99.71;99922.69;5065418;28;20048;-79
2023/07/05 03:39:26;;;;;;;6.88;5.68;;;;;;;14.82;99.62;99919.06;5054907;28;20040;-83
2023/07/05 03:41:52;;;;;;;10.10;5.43;;;;;;;14.84;99.68;99911.09;5054085;28;20036;-80
2023/07/05 03:44:21;;;;;;;8.85;5.38;;;;;;;14.86;99.72;99909.25;5064132;28;20040;-79
2023/07/05 03:46:54;;;;;;;7.57;5.80;;;;;;;14.89;100.00;99902.09;5046465;28;20051;-78
2023/07/05 03:49:20;;;;;;;9.23;5.88;;;;;;;14.93;99.98;99891.41;5057351;28;20048;-78
2023/07/05 03:51:47;;;;;;;6.70;5.40;;;;;;;14.96;99.85;99886.91;5074177;28;20048;-79
2023/07/05 03:54:14;;;;;;;9.85;6.53;;;;;;;14.98;99.42;99890.34;5069444;28;20048;-80
2023/07/05 03:56:40;;;;;;;10.43;6.88;;;;;;;15.03;99.59;99898.03;5061192;28;20036;-78
2023/07/05 03:59:07;;;;;;;6.68;5.60;;;;;;;15.09;99.74;99896.97;5057013;28;20024;-81
2023/07/05 04:01:34;;;;;;;8.25;5.90;;;;;;;15.14;99.00;99889.72;5040803;28;20112;-78
2023/07/05 04:04:02;;;;;;;7.95;5.85;;;;;;;15.18;98.77;99893.97;5052505;28;20029;-79
2023/07/05 04:06:32;;;;;;;8.13;5.78;;;;;;;15.22;99.66;99900.81;5056558;28;20067;-79
2023/07/05 04:09:00;;;;;;;10.52;5.70;;;;;;;15.23;99.33;99878.81;5040245;28;20036;-79
2023/07/05 04:11:27;;;;;;;8.68;7.22;;;;;;;15.21;99.14;99876.25;5026071;28;20040;-81
2023/07/05 04:13:55;;;;;;;9.32;6.07;;;;;;;15.22;99.08;99866.53;5057440;28;20040;-79
2023/07/05 04:16:24;;;;;;;8.02;5.68;;;;;;;15.25;98.80;99878.75;5063950;28;20047;-79
2023/07/05 04:18:54;;;;;;;8.57;6.65;;;;;;;15.27;98.74;99869.84;5042807;28;20037;-79
2023/07/05 04:21:21;;;;;;;10.25;6.22;;;;;;;15.30;98.72;99874.13;5057236;28;20044;-79
2023/07/05 04:23:48;;;;;;;9.98;6.40;;;;;;;15.32;98.46;99867.03;5057583;28;20035;-78
2023/07/05 04:26:21;;;;;;;9.75;5.88;;;;;;;15.35;97.86;99865.09;5047228;28;20087;-80
2023/07/05 04:28:48;;;;;;;13.07;6.55;;;;;;;15.35;97.68;99864.25;5054021;28;20039;-79
2023/07/05 04:31:19;;;;;;;8.45;6.40;;;;;;;15.34;97.77;99859.91;5038120;28;20041;-79
2023/07/05 04:33:47;;;;;;;8.25;5.97;;;;;;;15.32;97.81;99849.44;5056655;28;20406;-79
2023/07/05 04:36:14;;;;;;;14.00;7.10;;;;;;;15.29;97.90;99851.31;5054490;28;20494;-79
2023/07/05 04:38:40;;;;;;;12.43;7.18;;;;;;;15.29;98.13;99851.31;5054989;28;20040;-80
2023/07/05 04:41:06;;;;;;;10.02;6.82;;;;;;;15.26;98.05;99860.22;5066164;28;20051;-79
2023/07/05 04:43:33;;;;;;;8.27;6.13;;;;;;;15.30;98.18;99863.59;5052745;28;20032;-79
2023/07/05 04:46:00;;;;;;;7.03;6.15;;;;;;;15.29;98.87;99867.16;5056355;28;20040;-79
2023/07/05 04:48:29;;;;;;;16.08;7.25;;;;;;;15.08;100.00;99864.47;5055627;28;20075;-78
2023/07/05 04:50:57;;;;;;;11.70;7.18;;;;;;;14.88;100.00;99854.72;5053409;28;20502;-80
2023/07/05 04:53:27;;;;;;;7.82;6.82;;;;;;;14.80;100.00;99846.28;5043318;28;20044;-78
2023/07/05 04:55:57;;;;;;;10.57;7.25;;;;;;;14.83;100.00;99846.16;5039663;28;20485;-79
2023/07/05 04:58:25;;;;;;;9.25;7.20;;;;;;;14.84;100.00;99842.59;5055313;28;20041;-78
2023/07/05 05:00:52;;;;;;;10.07;6.88;;;;;;;14.89;100.00;99846.75;5066752;28;20039;-78
2023/07/05 05:03:23;;;;;;;9.00;6.50;;;;;;;14.95;100.00;99834.25;5060781;28;20033;-79
2023/07/05 05:05:54;;;;;;;7.15;6.07;;;;;;;15.03;100.00;99829.53;5055343;28;20040;-80
2023/07/05 05:08:21;;;;;;;8.88;7.03;;;;;;;15.17;100.00;99829.81;5071762;28;20052;-78
2023/07/05 05:10:58;;;;;;;11.63;7.38;;;;;;;15.32;99.74;99830.97;5035273;28;20625;-77
2023/07/05 05:13:24;;;;;;;10.55;6.15;;;;;;;15.41;99.01;99827.09;5064631;28;20045;-78
2023/07/05 05:15:51;;;;;;;8.63;6.45;;;;;;;15.48;98.61;99833.81;5042631;28;20044;-79
2023/07/05 05:18:19;;;;;;;8.85;6.28;;;;;;;15.51;98.44;99831.06;5067952;28;20101;-79
2023/07/05 05:20:45;;;;;;;9.20;6.90;;;;;;;15.54;98.61;99841.47;5040467;28;20048;-78
2023/07/05 05:23:12;;;;;;;7.93;6.60;;;;;;;15.51;99.44;99846.88;5053807;28;20079;-78
2023/07/05 05:25:42;;;;;;;9.07;6.20;;;;;;;15.44;100.00;99870.94;5054261;28;20087;-78
2023/07/05 05:28:10;;;;;;;15.80;8.40;;;;;;;15.34;100.00;99892.44;5039144;28;20037;-78
2023/07/05 05:30:36;;;;;;;11.00;7.68;;;;;;;14.87;100.00;99900.44;5042981;28;20040;-84
2023/07/05 05:33:04;;;;;;;15.43;8.55;;;;;;;14.32;100.00;99901.56;5033941;28;20037;-83
2023/07/05 05:35:32;;;;;;;11.45;7.50;;;;;;;14.03;100.00;99895.56;5029555;28;20479;-79
2023/07/05 05:37:59;;;;;;;10.50;6.97;;;;;;;13.84;100.00;99897.13;5046289;28;20040;-78
2023/07/05 05:40:25;;;;;;;13.10;8.43;;;;;;;13.83;100.00;99895.41;5049144;28;20037;-79
2023/07/05 05:42:52;;;;;;;10.68;7.25;;;;;;;13.80;100.00;99885.00;5035737;28;20041;-81
2023/07/05 05:45:18;;;;;;;11.90;8.10;;;;;;;13.80;100.00;99885.00;5030253;28;20115;-78
2023/07/05 05:47:45;;;;;;;14.00;8.77;;;;;;;13.75;100.00;99877.25;5034571;28;20040;-81
2023/07/05 05:50:11;;;;;;;13.52;7.55;;;;;;;13.73;100.00;99884.38;5047963;28;20032;-79
2023/07/05 05:52:38;;;;;;;15.98;8.05;;;;;;;13.71;100.00;99873.03;5046380;28;20040;-79
2023/07/05 05:55:05;;;;;;;12.60;8.73;;;;;;;13.63;100.00;99872.44;5042233;28;20040;-79
2023/07/05 05:57:31;;;;;;;9.10;7.95;;;;;;;13.64;100.00;99824.19;5052205;28;20513;-79
2023/07/05 05:59:58;;;;;;;15.18;7.35;;;;;;;13.60;100.00;99801.53;5052026;28;20037;-81
2023/07/05 06:02:26;;;;;;;9.70;7.10;;;;;;;13.57;100.00;99786.72;5051027;28;20471;-79
2023/07/05 06:04:53;;;;;;;14.32;8.25;;;;;;;13.59;100.00;99777.00;5050520;28;20120;-80
2023/07/05 06:07:20;;;;;;;10.70;7.72;;;;;;;13.58;100.00;99785.81;5039138;28;20044;-81
2023/07/05 06:09:49;;;;;;;15.63;7.90;;;;;;;13.62;100.00;99808.44;5032040;28;20460;-80
2023/07/05 06:12:16;;;;;;;9.75;6.97;;;;;;;13.74;100.00;99809.81;5032312;28;20041;-80
2023/07/05 06:14:43;;;;;;;12.18;6.55;;;;;;;13.80;100.00;99812.19;5016577;28;20045;-79
2023/07/05 06:17:10;;;;;;;9.85;6.28;;;;;;;13.86;100.00;99819.03;5043594;28;20079;-79
2023/07/05 06:19:36;;;;;;;9.20;6.43;;;;;;;13.93;100.00;99831.03;5033110;28;20045;-79
2023/07/05 06:22:03;;;;;;;7.28;5.70;;;;;;;14.02;100.00;99838.59;5035557;28;20430;-79
2023/07/05 06:24:31;;;;;;;8.75;6.25;;;;;;;14.10;100.00;99842.72;5055273;28;20466;-79
2023/07/05 06:26:59;;;;;;;5.47;4.35;;;;;;;14.12;100.00;99841.75;5023408;28;20037;-81
2023/07/05 06:29:25;;;;;;;4.90;4.20;;;;;;;14.14;100.00;99831.19;5035349;28;20387;-81
2023/07/05 06:31:52;;;;;;;3.67;3.38;;;;;;;14.13;100.00;99816.28;5045724;28;20040;-80
2023/07/05 06:34:18;;;;;;;8.25;3.75;;;;;;;14.18;100.00;99822.25;5050030;28;20048;-80
2023/07/05 06:36:45;;;;;;;5.43;3.47;;;;;;;14.21;100.00;99832.69;5047970;28;20048;-80
2023/07/05 06:39:11;;;;;;;4.68;3.63;;;;;;;14.26;100.00;99830.69;5054599;28;20047;-79
2023/07/05 06:41:38;;;;;;;3.83;2.92;;;;;;;14.32;100.00;99833.13;5060158;28;20123;-79
2023/07/05 06:44:04;;;;;;;3.70;3.08;;;;;;;14.43;100.00;99838.00;5055373;28;20092;-80
2023/07/05 06:46:32;;;;;;;3.20;2.90;;;;;;;14.56;100.00;99830.44;5054522;28;20094;-79
2023/07/05 06:48:58;;;;;;;5.18;3.25;;;;;;;14.69;100.00;99828.22;5037874;28;20668;-81
2023/07/05 06:51:25;;;;;;;3.08;2.30;;;;;;;14.82;100.00;99818.94;5053406;28;20041;-79
2023/07/05 06:53:51;;;;;;;3.03;2.58;;;;;;;15.07;100.00;99827.63;5053283;28;20043;-79
2023/07/05 06:56:18;;;;;;;2.90;2.17;;;;;;;15.29;100.00;99824.97;5034660;28;20118;-78
2023/07/05 06:58:44;;;;;;;6.78;2.88;;;;;;;15.49;100.00;99824.13;5069199;28;20048;-79
2023/07/05 07:01:11;;;;;;;5.70;2.60;;;;;;;15.65;100.00;99826.97;5054265;28;20078;-78
2023/07/05 07:03:38;;;;;;;3.47;2.15;;;;;;;15.84;100.00;99837.63;5062028;28;20044;-78
2023/07/05 07:06:04;;;;;;;1.90;1.75;;;;;;;16.03;100.00;99835.00;5067091;28;20051;-79
2023/07/05 07:08:35;;;;;;;4.72;3.00;;;;;;;16.15;100.00;99845.03;5038134;28;20098;-78
2023/07/05 07:11:02;;;;;;;2.67;2.20;;;;;;;16.18;100.00;99854.59;5054218;28;20087;-78
2023/07/05 07:13:29;;;;;;;3.40;2.03;;;;;;;16.12;100.00;99868.91;5046917;28;20033;-79
2023/07/05 07:16:03;;;;;;;2.30;1.65;;;;;;;16.06;100.00;99884.16;5043924;28;20102;-80
2023/07/05 07:18:30;;;;;;;2.88;1.73;;;;;;;16.00;100.00;99880.03;5047393;28;20103;-79
2023/07/05 07:20:58;;;;;;;2.47;1.73;;;;;;;16.03;100.00;99890.44;5043669;28;20044;-79
2023/07/05 07:23:24;;;;;;;1.42;1.33;;;;;;;15.88;100.00;99899.91;5056782;28;20486;-79
2023/07/05 07:26:05;;;;;;;2.03;1.83;;;;;;;15.72;100.00;99910.19;5040649;28;20120;-80
2023/07/05 07:28:31;;;;;;;2.13;1.42;;;;;;;15.54;99.99;99932.94;5066112;28;20124;-79
2023/07/05 07:30:58;;;;;;;1.88;1.60;;;;;;;15.33;95.13;99924.09;5051122;28;20040;-80
2023/07/05 07:33:27;;;;;;;1.38;1.27;;;;;;;15.35;94.82;99927.56;5062833;28;20045;-82
2023/07/05 07:35:53;;;;;;;1.48;1.23;;;;;;;15.57;92.96;99937.25;5060188;28;20036;-81
2023/07/05 07:38:20;;;;;;;2.47;2.25;;;;;;;15.93;90.73;99923.44;5051926;28;20044;-80
2023/07/05 07:40:46;;;;;;;2.17;1.85;;;;;;;16.23;90.00;99928.31;5057488;28;20064;-81
2023/07/05 07:43:12;;;;;;;1.75;1.42;;;;;;;16.51;88.63;99917.38;5054955;28;20048;-82
2023/07/05 07:45:39;;;;;;;2.65;1.55;;;;;;;16.89;88.04;99920.03;5036447;28;20033;-79
2023/07/05 07:48:06;;;;;;;2.03;1.38;;;;;;;17.32;86.87;99919.78;5054349;28;20063;-79
2023/07/05 07:50:32;;;;;;;1.55;1.48;;;;;;;17.77;82.14;99928.16;5067747;28;20040;-80
2023/07/05 07:52:58;;;;;;;2.40;1.80;;;;;;;18.02;80.30;99918.06;5061067;28;20048;-79
2023/07/05 07:55:25;;;;;;;2.53;1.58;;;;;;;18.00;78.56;99913.78;5051995;28;20033;-78
2023/07/05 07:57:53;;;;;;;2.38;1.60;;;;;;;18.24;77.01;99935.50;5053007;28;20036;-79
2023/07/05 08:00:21;;;;;;;5.15;2.03;;;;;;;18.70;75.22;99940.13;5050087;28;20090;-80
2023/07/05 08:02:47;;;;;;;3.40;2.05;;;;;;;19.04;74.17;99930.34;5055754;28;20041;-82
2023/07/05 08:05:18;;;;;;;3.35;1.67;;;;;;;19.04;73.72;99933.00;5056173;28;20047;-80
2023/07/05 08:07:44;;;;;;;1.95;1.77;;;;;;;19.23;71.93;99946.09;5059029;28;20040;-79
2023/07/05 08:10:11;;;;;;;1.95;1.77;;;;;;;19.20;71.72;99946.25;5073062;28;20055;-82
2023/07/05 08:12:38;;;;;;;2.20;1.88;;;;;;;19.48;70.11;99953.50;5049216;28;20056;-83
2023/07/05 08:15:06;;;;;;;2.78;1.25;;;;;;;19.55;68.84;99939.88;5036422;28;20762;-81
2023/07/05 08:17:33;;;;;;;1.88;1.75;;;;;;;19.71;66.38;99935.41;5034915;28;20033;-81
2023/07/05 08:19:59;;;;;;;1.27;1.17;;;;;;;20.21;67.02;99962.59;5051547;28;20040;-79
2023/07/05 08:22:28;;;;;;;1.77;1.40;;;;;;;20.86;64.30;99950.66;5025928;28;20407;-79
2023/07/05 08:24:55;;;;;;;2.67;1.83;;;;;;;20.56;62.95;99974.66;5042815;28;20064;-78
2023/07/05 08:27:21;;;;;;;1.92;1.70;;;;;;;19.79;64.79;99959.69;5053950;28;20149;-80
2023/07/05 08:29:48;;;;;;;3.45;1.67;;;;;;;18.80;67.75;99967.84;5031931;28;20048;-81
2023/07/05 08:32:14;;;;;;;2.35;1.77;;;;;;;19.13;65.85;99963.47;5039342;28;20041;-79
2023/07/05 08:34:41;;;;;;;2.00;1.83;;;;;;;19.82;65.26;99953.38;5044087;28;20043;-81
2023/07/05 08:37:07;;;;;;;2.97;1.50;;;;;;;20.57;61.30;99969.25;5065845;28;20037;-79
2023/07/05 08:39:34;;;;;;;4.88;1.80;;;;;;;21.01;60.63;99962.13;5049391;28;20068;-79
2023/07/05 08:42:31;;;;;;;1.58;1.48;;;;;;;20.91;57.70;99968.97;5045188;28;20079;-81
2023/07/05 08:45:22;;;;;;;2.70;1.45;;;;;;;21.10;57.55;99964.19;5057462;28;20033;-79
2023/07/05 08:48:01;;;;;;;1.45;1.25;;;;;;;21.70;54.97;99967.44;5072257;28;20052;-79
2023/07/05 08:50:32;;;;;;;2.33;1.75;;;;;;;22.07;52.04;99972.13;5053738;28;20040;-80
2023/07/05 08:53:06;;;;;;;1.98;1.33;;;;;;;22.01;51.09;99959.22;5054167;28;20039;-81
2023/07/05 08:56:09;;;;;;;2.72;1.70;;;;;;;21.92;50.67;99966.03;5052831;28;20033;-82
2023/07/05 08:58:48;;;;;;;4.75;1.52;;;;;;;22.28;49.81;99975.13;5037300;28;20052;-81
2023/07/05 09:01:25;;;;;;;1.45;1.35;;;;;;;22.14;49.45;99992.06;5044933;28;20124;-79
2023/07/05 09:03:52;;;;;;;1.88;1.77;;;;;;;21.79;48.72;99985.47;5057948;28;20795;-79
2023/07/05 09:06:26;;;;;;;2.45;1.20;;;;;;;21.01;50.02;99996.72;5038865;28;20040;-79
2023/07/05 09:09:38;;;;;;;1.67;1.58;;;;;;;20.37;50.28;99996.22;5053183;28;20044;-79
2023/07/05 09:12:34;;;;;;;3.13;1.58;;;;;;;20.38;49.95;99997.94;5072047;28;20040;-79
2023/07/05 09:15:19;;;;;;;2.13;1.70;;;;;;;21.32;47.42;100008.06;5061080;28;20064;-80
2023/07/05 09:18:15;;;;;;;3.08;1.75;;;;;;;21.73;45.80;99991.25;5049636;28;20086;-79
2023/07/05 09:21:03;;;;;;;2.35;1.38;;;;;;;22.35;43.66;100003.06;5037713;28;20064;-80
2023/07/05 09:23:43;;;;;;;1.73;1.63;;;;;;;22.97;43.48;100006.81;5051950;28;20041;-79
2023/07/05 09:26:29;;;;;;;2.47;1.55;;;;;;;22.23;42.67;100019.94;5052651;28;20480;-80
2023/07/05 09:29:23;;;;;;;2.85;1.60;;;;;;;21.92;42.63;100029.97;5048354;28;20044;-83
2023/07/05 09:31:51;;;;;;;2.83;1.98;;;;;;;21.42;43.29;100025.16;5065552;28;20116;-80
2023/07/05 09:34:37;;;;;;;2.88;1.80;;;;;;;20.96;45.34;100036.94;5048492;28;20203;-80
2023/07/05 09:37:39;;;;;;;1.85;1.45;;;;;;;20.59;46.79;100047.13;5048356;28;20033;-81
2023/07/05 09:40:16;;;;;;;1.70;1.30;;;;;;;20.02;46.77;100052.31;5045827;28;20060;-79
2023/07/05 09:42:50;;;;;;;1.23;1.10;;;;;;;19.73;47.49;100046.84;5045357;28;20717;-81
2023/07/05 09:45:18;;;;;;;3.72;1.92;;;;;;;20.23;47.57;100045.72;5061233;28;20094;-81
2023/07/05 09:47:50;;;;;;;1.42;1.33;;;;;;;20.44;47.11;100048.91;5027923;28;20190;-81
2023/07/05 09:50:21;;;;;;;6.95;2.22;;;;;;;20.08;46.83;100044.81;5045206;28;20083;-78
2023/07/05 09:52:56;;;;;;;3.20;1.60;;;;;;;20.94;45.04;100040.63;5057456;28;20050;-81
2023/07/05 09:55:26;;;;;;;0.85;0.80;;;;;;;21.98;42.33;100034.91;5066400;28;20079;-78
2023/07/05 09:57:53;;;;;;;2.33;1.17;;;;;;;23.19;40.36;100037.34;5044975;28;20040;-81
2023/07/05 10:00:27;;;;;;;3.00;1.00;;;;;;;24.32;38.14;100034.41;5051472;28;20033;-78
2023/07/05 10:02:56;;;;;;;;;;;;;;;23.56;38.73;100051.56;5048404;28;20479;-80
2023/07/05 10:05:30;;;;;;;3.22;1.45;;;;;;;22.04;42.05;100053.13;5063381;28;19923;-78
2023/07/05 10:08:02;;;;;;;0.85;0.68;;;;;;;20.94;44.54;100045.97;5066840;28;20048;-80
2023/07/05 10:10:40;;;;;;;1.17;0.80;;;;;;;21.73;43.66;100057.84;5031392;28;20041;-78
2023/07/05 10:13:16;;;;;;;1.92;0.90;;;;;;;21.40;42.84;100037.72;5069675;28;20071;-78
2023/07/05 10:15:47;;;;;;;3.65;0.60;;;;;;;22.56;41.25;100050.59;5051430;28;20058;-79
2023/07/05 10:18:36;;;;;;;3.13;1.13;;;;;;;23.25;40.12;100059.09;5046178;28;20051;-79
2023/07/05 10:21:09;;;;;;;3.22;1.23;;;;;;;23.21;39.92;100046.09;5049949;28;20046;-79
2023/07/05 10:23:36;;;;;;;1.05;0.90;;;;;;;23.25;39.82;100069.78;5062881;28;20024;-78
2023/07/05 10:26:06;;;;;;;0.80;0.80;;;;;;;21.99;42.19;100103.22;5049971;28;20047;-78
2023/07/05 10:28:37;;;;;;;1.35;1.02;;;;;;;20.23;45.66;100125.44;5038209;28;20485;-85
2023/07/05 10:31:05;;;;;;;3.47;0.80;;;;;;;19.23;48.71;100092.03;5051838;28;20040;-82
2023/07/05 10:33:35;;;;;;;2.33;1.15;;;;;;;18.97;49.80;100101.38;5041535;28;20041;-79
2023/07/05 10:36:13;;;;;;;3.45;1.30;;;;;;;18.65;50.65;100109.19;5054119;28;20040;-78
2023/07/05 10:38:40;;;;;;;1.35;1.10;;;;;;;18.42;51.89;100124.47;5054243;28;20036;-79
2023/07/05 10:41:32;;;;;;;3.47;0.95;;;;;;;18.35;52.22;100102.72;5055689;28;20144;-80
2023/07/05 10:44:11;;;;;;;4.63;1.70;;;;;;;20.63;47.38;100099.16;5055785;28;20067;-79
2023/07/05 10:46:39;;;;;;;1.48;1.17;;;;;;;22.20;43.42;100095.63;5052534;28;20106;-80
2023/07/05 10:49:13;;;;;;;1.27;1.20;;;;;;;22.38;42.73;100100.72;5069617;28;20040;-81
2023/07/05 10:51:47;;;;;;;1.85;0.50;;;;;;;21.64;43.51;100115.22;5058739;28;20119;-79
2023/07/05 10:54:37;;;;;;;0.57;0.57;;;;;;;20.41;46.26;100107.56;5055262;28;21076;-80
2023/07/05 10:57:17;;;;;;;1.35;1.10;;;;;;;19.93;47.41;100104.16;5049892;28;20073;-81
2023/07/05 10:59:46;;;;;;;1.83;0.82;;;;;;;19.87;48.20;100117.78;5054181;28;20037;-83
2023/07/05 11:02:48;;;;;;;2.70;1.23;;;;;;;19.77;48.48;100115.59;5047602;28;20048;-79
2023/07/05 11:05:32;;;;;;;1.60;0.70;;;;;;;20.65;46.82;100107.09;5066227;28;20059;-83
2023/07/05 11:08:03;;;;;;;1.55;0.60;;;;;;;21.51;43.99;100108.94;5052337;28;20047;-84
2023/07/05 11:10:39;;;;;;;0.63;0.60;;;;;;;21.48;44.18;100133.09;5073829;28;20037;-85
2023/07/05 11:13:06;;;;;;;2.50;1.25;;;;;;;22.53;42.49;100129.00;5054325;28;20096;-84
2023/07/05 11:15:32;;;;;;;1.83;0.50;;;;;;;24.21;39.34;100126.16;5075911;28;20120;-85
2023/07/05 11:17:59;;;;;;;2.28;0.57;;;;;;;25.36;37.33;100111.13;5061973;28;20038;-80
2023/07/05 11:20:40;;;;;;;1.98;0.77;;;;;;;24.34;38.04;100128.75;5058964;28;20672;-84
2023/07/05 11:23:09;;;;;;;7.95;1.40;;;;;;;23.46;39.94;100117.28;5071124;28;20429;-82
2023/07/05 11:26:00;;;;;;;2.65;0.77;;;;;;;24.17;38.79;100125.53;5055777;28;20671;-81
2023/07/05 11:28:35;;;;;;;1.83;1.15;;;;;;;24.75;37.42;100125.63;5072999;28;20048;-80
2023/07/05 11:31:04;;;;;;;1.48;0.70;;;;;;;25.81;35.74;100125.44;5069670;28;20437;-80
2023/07/05 11:33:30;;;;;;;0.90;0.82;;;;;;;26.14;35.35;100120.97;5057731;28;20119;-84
2023/07/05 11:36:05;;;;;;;1.42;0.77;;;;;;;27.14;34.20;100117.84;5044051;28;20028;-83
2023/07/05 11:38:40;;;;;;;1.40;0.70;;;;;;;26.52;34.17;100141.91;5038751;28;20044;-82
2023/07/05 11:41:26;;;;;;;3.92;1.08;;;;;;;26.93;33.82;100146.59;5068824;28;20031;-81
2023/07/05 11:44:00;;;;;;;1.23;0.95;;;;;;;25.24;35.83;100152.25;5044590;28;20382;-81